Time;durP1;ratioP1;P1;durP2;ratioP2;P2;SDS_P1;SDS_P2;PMS_P1;PMS_P2;Temp;Humidity;BMP_temperature;BMP_pressure;BME280_temperature;BME280_humidity;BME280_pressure;Samples;Min_cycle;Max_cycle;Signal;HPM_P1;HPM_P2
2023/08/21 00:01:14;;;;;;;;;;;18.30;99.90;;;;;;5042970;28;20551;-81
2023/08/21 00:03:43;;;;;;;13.15;4.82;;;18.30;99.90;;;;;;5042819;28;20285;-83
2023/08/21 00:06:12;;;;;;;10.98;5.00;;;18.20;99.90;;;;;;5044752;28;20053;-81
2023/08/21 00:08:39;;;;;;;10.93;3.75;;;18.30;99.90;;;;;;5064919;28;20041;-81
2023/08/21 00:11:04;;;;;;;;;;;18.30;99.90;;;;;;5042060;28;20075;-82
2023/08/21 00:13:31;;;;;;;16.05;4.03;;;18.30;99.90;;;;;;5042705;28;19931;-83
2023/08/21 00:15:57;;;;;;;11.07;5.60;;;18.30;99.90;;;;;;5043149;28;20082;-83
2023/08/21 00:18:23;;;;;;;;;;;18.30;99.90;;;;;;5031993;28;20048;-83
2023/08/21 00:20:48;;;;;;;14.02;3.33;;;18.10;99.90;;;;;;5029372;28;20577;-82
2023/08/21 00:23:14;;;;;;;15.40;3.35;;;18.00;99.90;;;;;;5029597;28;20071;-82
2023/08/21 00:25:46;;;;;;;7.60;4.20;;;18.10;99.90;;;;;;5029800;28;20060;-81
2023/08/21 00:28:12;;;;;;;9.95;3.97;;;18.10;99.90;;;;;;5031265;28;20401;-82
2023/08/21 00:30:38;;;;;;;13.90;4.20;;;18.10;99.90;;;;;;5027887;28;20037;-81
2023/08/21 00:33:03;;;;;;;;;;;18.00;99.90;;;;;;5030413;28;20064;-82
2023/08/21 00:35:29;;;;;;;7.60;3.13;;;18.00;99.90;;;;;;5030099;28;19917;-83
2023/08/21 00:37:56;;;;;;;13.27;3.58;;;18.00;99.90;;;;;;5035285;28;20033;-83
2023/08/21 00:40:22;;;;;;;4.63;3.28;;;17.90;99.90;;;;;;5030243;28;20632;-81
2023/08/21 00:42:47;;;;;;;;;;;17.90;99.90;;;;;;5030532;28;20072;-83
2023/08/21 00:45:13;;;;;;;7.73;3.93;;;17.90;99.90;;;;;;5029895;28;20424;-83
2023/08/21 00:47:40;;;;;;;7.75;3.90;;;17.80;99.90;;;;;;5041989;28;20454;-83
2023/08/21 00:50:07;;;;;;;12.15;4.10;;;17.70;99.90;;;;;;5025488;28;20029;-82
2023/08/21 00:52:35;;;;;;;20.05;4.03;;;17.70;99.90;;;;;;5029964;28;20480;-83
2023/08/21 00:55:02;;;;;;;13.63;3.95;;;17.70;99.90;;;;;;5029637;28;20095;-83
2023/08/21 00:57:29;;;;;;;15.18;4.68;;;17.60;99.90;;;;;;5029356;28;20106;-83
2023/08/21 00:59:55;;;;;;;15.25;3.97;;;17.70;99.90;;;;;;5037366;28;20037;-83
2023/08/21 01:02:20;;;;;;;;;;;17.70;99.90;;;;;;5029622;28;20052;-83
2023/08/21 01:04:46;;;;;;;9.10;3.58;;;17.80;99.90;;;;;;5036583;28;19920;-83
2023/08/21 01:07:14;;;;;;;11.10;5.10;;;17.70;99.90;;;;;;5027897;28;20041;-82
2023/08/21 01:09:48;;;;;;;11.73;3.78;;;17.80;99.90;;;;;;5036356;28;20079;-82
2023/08/21 01:12:34;;;;;;;13.45;3.55;;;17.70;99.90;;;;;;5029340;28;20493;-81
2023/08/21 01:15:03;;;;;;;18.92;3.88;;;17.70;99.90;;;;;;5034099;28;20029;-82
2023/08/21 01:17:36;;;;;;;13.07;3.20;;;17.70;99.90;;;;;;5028997;28;20045;-82
2023/08/21 01:20:03;;;;;;;8.18;3.25;;;17.60;99.90;;;;;;5028953;28;20045;-83
2023/08/21 01:22:36;;;;;;;13.88;3.45;;;17.60;99.90;;;;;;5023845;28;20041;-81
2023/08/21 01:25:03;;;;;;;13.63;3.83;;;17.60;99.90;;;;;;5041285;28;20060;-81
2023/08/21 01:27:29;;;;;;;12.43;3.47;;;17.40;99.90;;;;;;5039182;28;20049;-82
2023/08/21 01:29:54;;;;;;;;;;;17.40;99.90;;;;;;5030802;28;20048;-81
2023/08/21 01:32:35;;;;;;;11.48;3.10;;;17.40;99.90;;;;;;5032060;28;19928;-84
2023/08/21 01:35:01;;;;;;;7.78;3.15;;;17.40;99.90;;;;;;5034553;28;20771;-83
2023/08/21 01:37:28;;;;;;;12.02;3.70;;;17.40;99.90;;;;;;5045395;28;20044;-83
2023/08/21 01:39:57;;;;;;;11.30;3.72;;;17.30;99.90;;;;;;5037206;28;20041;-83
2023/08/21 01:42:23;;;;;;;6.90;3.15;;;17.30;99.90;;;;;;5036796;28;20045;-82
2023/08/21 01:44:48;;;;;;;;;;;17.30;99.90;;;;;;5034813;28;20037;-82
2023/08/21 01:47:14;;;;;;;8.60;3.65;;;17.20;99.90;;;;;;5041346;28;19920;-83
2023/08/21 01:49:40;;;;;;;;;;;17.20;99.90;;;;;;5029427;28;20076;-82
2023/08/21 01:52:05;;;;;;;15.75;3.40;;;17.20;99.90;;;;;;5029038;28;19956;-84
2023/08/21 01:54:31;;;;;;;;;;;17.20;99.90;;;;;;5028684;28;20088;-83
2023/08/21 01:56:57;;;;;;;13.05;3.40;;;17.20;99.90;;;;;;5029205;28;20050;-83
2023/08/21 01:59:24;;;;;;;12.98;3.67;;;17.10;99.90;;;;;;5024797;28;20046;-83
2023/08/21 02:01:50;;;;;;;12.60;3.47;;;17.10;99.90;;;;;;5023836;28;20119;-83
2023/08/21 02:04:16;;;;;;;;;;;17.10;99.90;;;;;;5027377;28;20128;-82
2023/08/21 02:06:43;;;;;;;16.90;4.03;;;17.10;99.90;;;;;;5043294;28;19921;-82
2023/08/21 02:09:10;;;;;;;10.32;3.92;;;17.10;99.90;;;;;;5027264;28;20033;-83
2023/08/21 02:11:36;;;;;;;15.27;3.78;;;17.10;99.90;;;;;;5030525;28;21056;-84
2023/08/21 02:14:02;;;;;;;;;;;17.00;99.90;;;;;;5035984;28;20052;-83
2023/08/21 02:16:28;;;;;;;11.15;3.33;;;17.00;99.90;;;;;;5035058;28;19963;-84
2023/08/21 02:18:54;;;;;;;11.20;3.20;;;17.10;99.90;;;;;;5032729;28;20044;-84
2023/08/21 02:21:20;;;;;;;11.23;3.38;;;17.10;99.90;;;;;;5038954;28;20493;-82
2023/08/21 02:23:46;;;;;;;;;;;17.10;99.90;;;;;;5050441;28;20041;-84
2023/08/21 02:26:12;;;;;;;10.30;3.58;;;17.00;99.90;;;;;;5037161;28;19951;-82
2023/08/21 02:28:37;;;;;;;17.83;3.85;;;17.00;99.90;;;;;;5042813;28;20049;-81
2023/08/21 02:31:03;;;;;;;18.38;3.63;;;17.00;99.90;;;;;;5025904;28;20040;-84
2023/08/21 02:33:29;;;;;;;19.80;3.47;;;17.00;99.90;;;;;;5044507;28;20037;-83
2023/08/21 02:35:55;;;;;;;9.57;3.75;;;17.00;99.90;;;;;;5026754;28;20051;-81
2023/08/21 02:38:21;;;;;;;14.75;3.17;;;17.00;99.90;;;;;;5034365;28;20042;-81
2023/08/21 02:40:47;;;;;;;11.07;3.40;;;16.90;99.90;;;;;;5024181;28;20378;-81
2023/08/21 02:43:13;;;;;;;10.25;3.30;;;16.90;99.90;;;;;;5026075;28;20033;-82
2023/08/21 02:45:38;;;;;;;;;;;16.80;99.90;;;;;;5032859;28;20044;-84
2023/08/21 02:48:06;;;;;;;5.57;2.88;;;16.80;99.90;;;;;;5022998;28;19917;-83
2023/08/21 02:50:32;;;;;;;10.50;3.55;;;16.80;99.90;;;;;;5019797;28;20055;-82
2023/08/21 02:52:58;;;;;;;;;;;16.70;99.90;;;;;;5032432;28;20029;-83
2023/08/21 02:55:23;;;;;;;15.65;3.20;;;16.80;99.90;;;;;;5021409;28;20452;-83
2023/08/21 02:57:49;;;;;;;13.90;3.20;;;16.80;99.90;;;;;;5026985;28;20037;-83
2023/08/21 03:00:16;;;;;;;10.07;3.33;;;16.80;99.90;;;;;;5021507;28;20065;-83
2023/08/21 03:02:43;;;;;;;8.55;2.92;;;16.80;99.90;;;;;;5028906;28;20036;-84
2023/08/21 03:05:10;;;;;;;8.98;3.45;;;16.80;99.90;;;;;;5032167;28;20030;-81
2023/08/21 03:07:36;;;;;;;12.38;3.45;;;16.80;99.90;;;;;;5032999;28;20051;-83
2023/08/21 03:10:02;;;;;;;;;;;16.70;99.90;;;;;;5038419;28;20101;-83
2023/08/21 03:12:32;;;;;;;7.45;3.00;;;16.70;99.90;;;;;;5032800;28;19917;-83
2023/08/21 03:14:58;;;;;;;9.68;3.38;;;16.70;99.90;;;;;;5034849;28;20116;-83
2023/08/21 03:17:31;;;;;;;;;;;16.70;99.90;;;;;;5028126;28;20163;-82
2023/08/21 03:20:05;;;;;;;11.00;3.10;;;16.70;99.90;;;;;;5041945;28;19984;-82
2023/08/21 03:22:34;;;;;;;10.90;3.38;;;16.60;99.90;;;;;;5026178;28;20045;-83
2023/08/21 03:25:00;;;;;;;7.60;3.63;;;16.60;99.90;;;;;;5026833;28;20680;-82
2023/08/21 03:27:25;;;;;;;;;;;16.60;99.90;;;;;;5027449;28;20051;-82
2023/08/21 03:29:51;;;;;;;9.52;3.25;;;16.50;99.90;;;;;;5035239;28;19942;-81
2023/08/21 03:32:17;;;;;;;;;;;16.50;99.90;;;;;;5042251;28;20127;-82
2023/08/21 03:34:43;;;;;;;7.45;3.10;;;16.50;99.90;;;;;;5027542;28;20016;-83
2023/08/21 03:37:09;;;;;;;6.10;3.45;;;16.50;99.90;;;;;;5026650;28;20591;-81
2023/08/21 03:39:35;;;;;;;;;;;16.50;99.90;;;;;;5034696;28;20036;-81
2023/08/21 03:42:01;;;;;;;16.77;4.10;;;16.40;99.90;;;;;;5030515;28;19981;-86
2023/08/21 03:44:26;;;;;;;10.82;3.42;;;16.40;99.90;;;;;;5030473;28;20175;-83
2023/08/21 03:46:52;;;;;;;19.80;3.58;;;16.40;99.90;;;;;;5024990;28;20041;-83
2023/08/21 03:49:19;;;;;;;;;;;16.40;99.90;;;;;;5027714;28;20059;-83
2023/08/21 03:51:45;;;;;;;11.15;3.60;;;16.40;99.90;;;;;;5028439;28;19983;-81
2023/08/21 03:54:11;;;;;;;12.57;3.67;;;16.40;99.90;;;;;;5022050;28;20444;-82
2023/08/21 03:56:36;;;;;;;15.15;4.15;;;16.40;99.90;;;;;;5037977;28;20049;-82
2023/08/21 03:59:02;;;;;;;5.70;3.78;;;16.40;99.90;;;;;;5042999;28;20075;-83
2023/08/21 04:01:28;;;;;;;;;;;16.40;99.90;;;;;;5031883;28;20061;-82
2023/08/21 04:03:54;;;;;;;7.40;4.00;;;16.30;99.90;;;;;;5030235;28;20299;-81
2023/08/21 04:06:20;;;;;;;7.75;3.55;;;16.30;99.90;;;;;;5038704;28;20033;-81
2023/08/21 04:08:45;;;;;;;;;;;16.30;99.90;;;;;;5031594;28;20045;-84
2023/08/21 04:11:11;;;;;;;7.95;3.42;;;16.20;99.90;;;;;;5049213;28;19917;-83
2023/08/21 04:13:37;;;;;;;12.48;3.75;;;16.20;99.90;;;;;;5030813;28;20602;-84
2023/08/21 04:16:03;;;;;;;;;;;16.20;99.90;;;;;;5031508;28;20126;-83
2023/08/21 04:18:29;;;;;;;16.40;3.80;;;16.20;99.90;;;;;;5030607;28;19917;-83
2023/08/21 04:20:55;;;;;;;11.77;4.50;;;16.30;99.90;;;;;;5019212;28;20044;-81
2023/08/21 04:23:20;;;;;;;;;;;16.30;99.90;;;;;;5026877;28;20123;-82
2023/08/21 04:25:46;;;;;;;7.78;3.42;;;16.30;99.90;;;;;;5030222;28;19928;-83
2023/08/21 04:28:12;;;;;;;;;;;16.30;99.90;;;;;;5030388;28;20037;-82
2023/08/21 04:30:41;;;;;;;11.38;3.80;;;16.20;99.90;;;;;;5020052;28;19972;-81
2023/08/21 04:33:06;;;;;;;10.40;3.72;;;16.30;99.90;;;;;;5036676;28;20039;-82
2023/08/21 04:35:36;;;;;;;;;;;16.30;99.90;;;;;;5029316;28;20439;-82
2023/08/21 04:38:02;;;;;;;7.18;3.17;;;16.40;99.90;;;;;;5029964;28;19917;-81
2023/08/21 04:40:27;;;;;;;;;;;16.40;99.90;;;;;;5029887;28;20048;-82
2023/08/21 04:42:53;;;;;;;11.27;4.13;;;16.40;99.90;;;;;;5029191;28;19924;-82
2023/08/21 04:45:19;;;;;;;;;;;16.40;99.90;;;;;;5036320;28;20090;-81
2023/08/21 04:47:45;;;;;;;11.05;3.35;;;16.40;99.90;;;;;;5044500;28;19921;-83
2023/08/21 04:50:12;;;;;;;17.30;4.25;;;16.40;99.90;;;;;;5038520;28;20032;-83
2023/08/21 04:52:38;;;;;;;9.45;3.83;;;16.40;99.90;;;;;;5033574;28;20070;-83
2023/08/21 04:55:05;;;;;;;;;;;16.30;99.90;;;;;;5042859;28;20037;-83
2023/08/21 04:57:32;;;;;;;11.15;4.30;;;16.40;99.90;;;;;;5040367;28;19924;-84
2023/08/21 04:59:58;;;;;;;10.25;4.32;;;16.40;99.90;;;;;;5033767;28;20037;-84
2023/08/21 05:02:24;;;;;;;;;;;16.40;99.90;;;;;;5036157;28;20037;-84
2023/08/21 05:04:49;;;;;;;7.07;3.35;;;16.40;99.90;;;;;;5037033;28;19965;-83
2023/08/21 05:07:15;;;;;;;6.32;3.50;;;16.50;99.90;;;;;;5029412;28;20037;-82
2023/08/21 05:09:41;;;;;;;;;;;16.60;99.90;;;;;;5028367;28;20072;-82
2023/08/21 05:12:08;;;;;;;9.75;3.35;;;16.60;99.90;;;;;;5053383;28;19967;-83
2023/08/21 05:14:35;;;;;;;10.25;3.97;;;16.70;99.90;;;;;;5035050;28;20087;-82
2023/08/21 05:17:01;;;;;;;14.18;3.75;;;16.70;99.90;;;;;;5031102;28;20128;-83
2023/08/21 05:19:26;;;;;;;;;;;16.60;99.90;;;;;;5031551;28;20115;-83
2023/08/21 05:21:53;;;;;;;15.88;4.00;;;16.60;99.90;;;;;;5029562;28;19917;-85
2023/08/21 05:24:19;;;;;;;9.55;3.85;;;16.60;99.90;;;;;;5036200;28;20041;-83
2023/08/21 05:26:44;;;;;;;;;;;16.60;99.90;;;;;;5039248;28;20117;-82
2023/08/21 05:29:10;;;;;;;10.85;3.40;;;16.70;99.90;;;;;;5023636;28;19917;-84
2023/08/21 05:31:36;;;;;;;7.43;3.42;;;16.80;99.90;;;;;;5018646;28;20494;-83
2023/08/21 05:34:02;;;;;;;7.38;3.80;;;17.00;99.90;;;;;;5021423;28;20070;-83
2023/08/21 05:36:28;;;;;;;;;;;17.20;99.90;;;;;;5035862;28;20037;-83
2023/08/21 05:38:56;;;;;;;10.27;4.38;;;17.30;99.90;;;;;;5056291;28;19921;-81
2023/08/21 05:41:22;;;;;;;7.72;3.22;;;17.50;99.90;;;;;;5034996;28;20071;-82
2023/08/21 05:43:48;;;;;;;;;;;17.60;99.90;;;;;;5028975;28;20068;-82
2023/08/21 05:46:14;;;;;;;10.85;3.42;;;17.70;99.90;;;;;;5036084;28;19921;-82
2023/08/21 05:48:41;;;;;;;;;;;17.80;99.90;;;;;;5030378;28;20041;-82
2023/08/21 05:51:07;;;;;;;10.68;3.55;;;17.90;99.90;;;;;;5040225;28;19920;-83
2023/08/21 05:53:33;;;;;;;;;;;18.00;99.90;;;;;;5036140;28;20063;-85
2023/08/21 05:55:59;;;;;;;6.43;3.08;;;18.10;99.90;;;;;;5025852;28;20450;-85
2023/08/21 05:58:30;;;;;;;10.55;3.60;;;18.10;99.90;;;;;;5035591;28;20049;-80
2023/08/21 06:00:56;;;;;;;8.05;3.40;;;17.90;99.90;;;;;;5018334;28;20494;-83
2023/08/21 06:03:22;;;;;;;5.93;3.88;;;17.90;99.90;;;;;;5028090;28;20049;-81
2023/08/21 06:05:47;;;;;;;;;;;17.80;99.90;;;;;;5025880;28;20057;-81
2023/08/21 06:08:13;;;;;;;9.02;3.53;;;17.80;99.90;;;;;;5040791;28;19966;-83
2023/08/21 06:10:39;;;;;;;;;;;17.70;99.90;;;;;;5031509;28;20033;-83
2023/08/21 06:13:05;;;;;;;8.85;3.03;;;17.90;99.90;;;;;;5027742;28;19917;-83
2023/08/21 06:15:30;;;;;;;;;;;18.00;99.90;;;;;;5035269;28;20068;-83
2023/08/21 06:17:56;;;;;;;9.15;3.45;;;18.20;99.90;;;;;;5030398;28;19916;-82
2023/08/21 06:20:21;;;;;;;10.85;3.90;;;18.30;99.90;;;;;;5027909;28;20079;-83
2023/08/21 06:22:47;;;;;;;;;;;18.30;99.90;;;;;;5020776;28;20033;-83
2023/08/21 06:25:13;;;;;;;9.63;3.45;;;18.90;99.90;;;;;;5036154;28;20083;-83
2023/08/21 06:27:39;;;;;;;8.32;2.97;;;19.90;99.90;;;;;;5051720;28;20074;-84
2023/08/21 06:30:06;;;;;;;8.80;2.92;;;21.20;99.90;;;;;;5035475;28;20031;-83
2023/08/21 06:32:32;;;;;;;8.10;3.20;;;22.50;99.90;;;;;;5034946;28;20404;-82
2023/08/21 06:34:57;;;;;;;5.03;2.47;;;23.20;99.90;;;;;;5057288;28;20037;-82
2023/08/21 06:37:24;;;;;;;9.98;3.20;;;23.60;99.90;;;;;;5034694;28;20076;-82
2023/08/21 06:39:50;;;;;;;6.30;3.40;;;23.40;99.90;;;;;;5038161;28;20077;-82
2023/08/21 06:42:16;;;;;;;5.22;2.35;;;23.20;99.90;;;;;;5030638;28;20041;-80
2023/08/21 06:44:43;;;;;;;5.15;3.08;;;23.00;99.90;;;;;;5028069;28;20399;-81
2023/08/21 06:47:09;;;;;;;6.93;3.70;;;22.60;99.90;;;;;;5022861;28;20037;-82
2023/08/21 06:49:34;;;;;;;8.75;3.47;;;22.30;99.90;;;;;;5027528;28;20044;-82
2023/08/21 06:52:01;;;;;;;9.80;2.80;;;22.10;99.90;;;;;;5027635;28;20037;-83
2023/08/21 06:54:27;;;;;;;6.07;3.42;;;22.20;99.90;;;;;;5027456;28;20049;-83
2023/08/21 06:56:53;;;;;;;6.18;3.10;;;22.30;99.90;;;;;;5036226;28;20053;-83
2023/08/21 06:59:18;;;;;;;9.50;3.63;;;22.30;99.90;;;;;;5027434;28;20037;-81
2023/08/21 07:01:44;;;;;;;10.50;3.60;;;22.30;99.90;;;;;;5029155;28;20048;-81
2023/08/21 07:04:11;;;;;;;7.47;3.70;;;22.20;99.90;;;;;;5053057;28;20673;-81
2023/08/21 07:06:37;;;;;;;11.63;3.80;;;22.10;99.90;;;;;;5031105;28;20063;-81
2023/08/21 07:09:02;;;;;;;7.20;3.58;;;22.00;99.90;;;;;;5035110;28;20484;-81
2023/08/21 07:11:28;;;;;;;6.65;4.47;;;21.90;99.90;;;;;;5027623;28;20182;-83
2023/08/21 07:13:55;;;;;;;17.70;4.38;;;21.70;99.90;;;;;;5027646;28;20045;-83
2023/08/21 07:16:21;;;;;;;9.98;4.35;;;21.70;99.90;;;;;;5031776;28;20703;-82
2023/08/21 07:18:47;;;;;;;12.13;4.53;;;21.60;99.90;;;;;;5039187;28;20066;-81
2023/08/21 07:21:12;;;;;;;15.45;4.90;;;21.70;99.90;;;;;;5030878;28;20199;-82
2023/08/21 07:23:38;;;;;;;12.57;5.55;;;21.70;99.90;;;;;;5032696;28;20037;-81
2023/08/21 07:26:07;;;;;;;11.05;4.88;;;21.80;99.90;;;;;;5041444;28;20033;-83
2023/08/21 07:28:33;;;;;;;8.90;4.30;;;21.90;99.90;;;;;;5041883;28;20040;-83
2023/08/21 07:30:59;;;;;;;9.73;5.50;;;21.90;99.90;;;;;;5042122;28;20059;-82
2023/08/21 07:33:26;;;;;;;11.57;5.57;;;21.90;99.90;;;;;;5048054;28;20083;-83
2023/08/21 07:36:05;;;;;;;14.05;5.97;;;22.00;99.90;;;;;;5030535;28;20075;-83
2023/08/21 07:38:31;;;;;;;11.40;5.13;;;21.90;99.90;;;;;;5037107;28;20094;-83
2023/08/21 07:41:09;;;;;;;9.38;5.18;;;21.90;99.90;;;;;;5028032;28;20036;-81
2023/08/21 07:43:42;;;;;;;18.23;4.82;;;21.90;99.90;;;;;;5039193;28;20040;-81
2023/08/21 07:46:13;;;;;;;7.68;5.25;;;21.90;99.90;;;;;;5039375;28;20694;-81
2023/08/21 07:48:39;;;;;;;7.00;5.10;;;21.90;99.90;;;;;;5055189;28;20169;-83
2023/08/21 07:51:06;;;;;;;8.98;5.00;;;21.90;99.90;;;;;;5024995;28;20453;-83
2023/08/21 07:53:32;;;;;;;9.57;4.72;;;21.90;99.90;;;;;;5036942;28;20075;-83
2023/08/21 07:55:58;;;;;;;8.75;5.05;;;21.80;99.90;;;;;;5033086;28;20075;-83
2023/08/21 07:58:24;;;;;;;9.50;4.65;;;21.80;99.90;;;;;;5037554;28;20127;-83
2023/08/21 08:00:51;;;;;;;5.78;4.82;;;21.80;99.90;;;;;;5036055;28;20206;-82
2023/08/21 08:03:17;;;;;;;9.30;4.60;;;21.90;99.90;;;;;;5025849;28;20038;-83
2023/08/21 08:05:43;;;;;;;10.23;5.57;;;21.90;99.90;;;;;;5026507;28;20079;-83
2023/08/21 08:08:09;;;;;;;13.32;5.00;;;22.10;99.90;;;;;;5039551;28;20075;-82
2023/08/21 08:10:40;;;;;;;7.57;4.43;;;22.50;99.90;;;;;;5038896;28;20036;-81
2023/08/21 08:13:07;;;;;;;6.22;4.68;;;23.40;99.90;;;;;;5040149;28;20044;-83
2023/08/21 08:15:34;;;;;;;9.40;5.43;;;23.40;99.90;;;;;;5055233;28;20041;-81
2023/08/21 08:18:05;;;;;;;9.75;5.38;;;23.20;99.90;;;;;;5026730;28;20040;-81
2023/08/21 08:20:31;;;;;;;9.02;4.80;;;22.90;99.90;;;;;;5037495;28;20040;-82
2023/08/21 08:22:57;;;;;;;7.97;5.40;;;22.80;99.90;;;;;;5056234;28;20108;-81
2023/08/21 08:25:23;;;;;;;8.57;5.20;;;22.50;99.90;;;;;;5033993;28;20159;-81
2023/08/21 08:27:51;;;;;;;9.02;4.82;;;22.40;99.90;;;;;;5030946;28;20037;-82
2023/08/21 08:30:17;;;;;;;9.55;4.80;;;22.40;99.90;;;;;;5040004;28;20040;-82
2023/08/21 08:32:46;;;;;;;8.27;4.65;;;22.90;99.90;;;;;;5036991;28;20041;-82
2023/08/21 08:35:15;;;;;;;9.00;5.20;;;22.90;99.90;;;;;;5037361;28;20041;-81
2023/08/21 08:37:44;;;;;;;8.38;5.50;;;22.80;99.90;;;;;;5044881;28;20056;-81
2023/08/21 08:40:11;;;;;;;7.63;4.28;;;22.70;99.90;;;;;;5031215;28;20044;-81
2023/08/21 08:42:37;;;;;;;10.80;5.47;;;22.50;99.90;;;;;;5048179;28;20052;-81
2023/08/21 08:45:04;;;;;;;10.50;4.97;;;22.30;99.90;;;;;;5027156;28;20394;-83
2023/08/21 08:47:34;;;;;;;8.68;5.57;;;22.30;99.90;;;;;;5030421;28;20037;-83
2023/08/21 08:50:05;;;;;;;12.13;5.63;;;22.10;99.90;;;;;;5030478;28;20668;-85
2023/08/21 08:52:36;;;;;;;9.32;5.32;;;22.00;99.90;;;;;;5038497;28;20045;-84
2023/08/21 08:55:02;;;;;;;9.50;4.55;;;22.00;99.90;;;;;;5038074;28;20041;-84
2023/08/21 08:57:30;;;;;;;9.82;5.72;;;22.00;99.90;;;;;;5021878;28;20036;-84
2023/08/21 08:59:56;;;;;;;7.97;5.15;;;21.90;99.90;;;;;;5029139;28;20102;-85
2023/08/21 09:02:23;;;;;;;14.48;5.40;;;21.90;99.90;;;;;;5031412;28;20668;-85
2023/08/21 09:04:49;;;;;;;8.45;4.95;;;21.80;99.90;;;;;;5033952;28;20126;-84
2023/08/21 09:07:17;;;;;;;10.55;5.05;;;21.70;99.90;;;;;;5055582;28;20079;-84
2023/08/21 09:09:49;;;;;;;6.45;4.53;;;21.90;99.90;;;;;;5029996;28;20052;-82
2023/08/21 09:12:16;;;;;;;14.38;5.43;;;22.20;99.90;;;;;;5037307;28;20481;-82
2023/08/21 09:14:43;;;;;;;11.68;5.70;;;22.50;99.90;;;;;;5029860;28;20075;-85
2023/08/21 09:17:10;;;;;;;11.93;5.32;;;22.70;99.90;;;;;;5038353;28;20122;-86
2023/08/21 09:19:36;;;;;;;7.72;4.85;;;22.80;99.90;;;;;;5037596;28;20041;-85
2023/08/21 09:22:14;;;;;;;6.32;5.00;;;23.00;99.90;;;;;;5055836;28;20481;-85
2023/08/21 09:24:40;;;;;;;9.05;5.38;;;23.10;99.90;;;;;;5029826;28;20047;-84
2023/08/21 09:27:16;;;;;;;9.65;5.20;;;23.20;99.90;;;;;;5029963;28;20049;-82
2023/08/21 09:29:42;;;;;;;15.18;5.40;;;23.40;99.90;;;;;;5032561;28;20041;-82
2023/08/21 09:32:08;;;;;;;9.10;4.90;;;23.40;99.90;;;;;;5035443;28;20284;-82
2023/08/21 09:34:37;;;;;;;9.48;5.53;;;23.50;99.90;;;;;;5029456;28;20400;-85
2023/08/21 09:37:08;;;;;;;8.32;5.78;;;23.60;99.90;;;;;;5028790;28;20839;-85
2023/08/21 09:39:35;;;;;;;13.35;5.30;;;23.70;99.90;;;;;;5029190;28;20048;-83
2023/08/21 09:42:05;;;;;;;8.82;5.35;;;23.80;99.90;;;;;;5028802;28;20071;-83
2023/08/21 09:44:38;;;;;;;14.40;6.07;;;23.90;99.90;;;;;;5025681;28;20041;-85
2023/08/21 09:47:11;;;;;;;7.80;5.13;;;24.00;99.90;;;;;;5028236;28;20102;-84
2023/08/21 09:49:39;;;;;;;7.88;5.45;;;24.10;99.90;;;;;;5034969;28;20032;-84
2023/08/21 09:52:12;;;;;;;9.27;5.10;;;24.00;99.90;;;;;;5036795;28;20400;-84
2023/08/21 09:54:38;;;;;;;9.20;4.95;;;23.80;99.90;;;;;;5040430;28;20040;-84
2023/08/21 09:57:04;;;;;;;10.85;5.28;;;23.70;99.90;;;;;;5045594;28;20036;-82
2023/08/21 09:59:33;;;;;;;9.70;5.63;;;23.70;99.90;;;;;;5037760;28;20481;-81
2023/08/21 10:02:00;;;;;;;9.35;5.22;;;23.90;99.90;;;;;;5047552;28;20068;-82
2023/08/21 10:04:29;;;;;;;11.45;5.93;;;24.10;99.90;;;;;;5041102;28;20128;-84
2023/08/21 10:06:57;;;;;;;13.70;5.15;;;24.30;99.90;;;;;;5043830;28;20044;-85
2023/08/21 10:09:25;;;;;;;8.20;5.45;;;24.30;99.90;;;;;;5057375;28;20645;-84
2023/08/21 10:11:53;;;;;;;6.88;4.85;;;24.40;99.90;;;;;;5032126;28;20037;-84
2023/08/21 10:14:26;;;;;;;11.20;5.00;;;24.30;99.90;;;;;;5046351;28;20037;-83
2023/08/21 10:16:53;;;;;;;10.38;4.95;;;24.20;99.90;;;;;;5035098;28;20039;-85
2023/08/21 10:19:19;;;;;;;11.57;6.00;;;24.20;99.90;;;;;;5034106;28;20032;-84
2023/08/21 10:21:48;;;;;;;11.57;5.43;;;24.40;99.90;;;;;;5036633;28;20037;-85
2023/08/21 10:24:27;;;;;;;8.98;5.72;;;24.40;99.90;;;;;;5046134;28;20116;-84
2023/08/21 10:26:53;;;;;;;12.23;5.68;;;24.40;99.90;;;;;;5035858;28;20044;-82
2023/08/21 10:29:19;;;;;;;11.43;5.63;;;24.50;99.90;;;;;;5047444;28;20084;-83
2023/08/21 10:31:45;;;;;;;9.70;5.82;;;24.70;99.90;;;;;;5025111;28;20063;-82
2023/08/21 10:34:13;;;;;;;6.60;5.07;;;24.70;99.90;;;;;;5039858;28;20056;-83
2023/08/21 10:36:45;;;;;;;15.10;5.75;;;24.80;99.90;;;;;;5028083;28;20401;-85
2023/08/21 10:39:18;;;;;;;7.38;5.07;;;25.10;99.90;;;;;;5029675;28;20091;-84
2023/08/21 10:42:09;;;;;;;11.48;5.32;;;25.00;99.90;;;;;;5053466;28;20041;-84
2023/08/21 10:45:05;;;;;;;10.95;5.55;;;24.90;99.90;;;;;;5026094;28;20032;-85
2023/08/21 10:47:35;;;;;;;7.65;4.93;;;24.70;99.90;;;;;;5045944;28;20045;-83
2023/08/21 10:50:03;;;;;;;12.25;5.30;;;24.50;99.90;;;;;;5035656;28;20043;-84
2023/08/21 10:52:37;;;;;;;7.18;4.05;;;24.50;99.90;;;;;;5028610;28;20634;-85
2023/08/21 10:55:04;;;;;;;7.78;4.80;;;24.70;99.90;;;;;;5027985;28;20033;-85
2023/08/21 10:57:31;;;;;;;13.93;5.28;;;24.60;99.90;;;;;;5025329;28;20045;-84
2023/08/21 10:59:59;;;;;;;11.27;4.47;;;24.60;99.90;;;;;;5020119;28;20106;-81
2023/08/21 11:02:28;;;;;;;15.98;5.35;;;24.70;99.90;;;;;;5052872;28;20041;-83
2023/08/21 11:04:55;;;;;;;10.68;5.22;;;24.90;99.90;;;;;;5044901;28;20037;-83
2023/08/21 11:07:22;;;;;;;10.65;6.28;;;24.90;99.90;;;;;;5028964;28;20076;-82
2023/08/21 11:09:51;;;;;;;8.13;4.97;;;24.60;99.90;;;;;;5034600;28;20044;-82
2023/08/21 11:12:19;;;;;;;8.10;4.53;;;24.50;99.90;;;;;;5032623;28;20041;-82
2023/08/21 11:14:45;;;;;;;10.27;4.90;;;24.50;99.90;;;;;;5023261;28;20135;-83
2023/08/21 11:17:12;;;;;;;9.63;4.15;;;24.40;99.90;;;;;;5025018;28;20458;-83
2023/08/21 11:19:39;;;;;;;8.07;4.97;;;24.40;99.90;;;;;;5019266;28;20044;-82
2023/08/21 11:22:06;;;;;;;7.65;4.43;;;24.60;99.90;;;;;;5036043;28;20397;-83
2023/08/21 11:24:37;;;;;;;8.73;5.07;;;24.80;99.90;;;;;;5035594;28;20048;-82
2023/08/21 11:27:12;;;;;;;14.18;4.93;;;24.80;99.90;;;;;;5033155;28;20044;-82
2023/08/21 11:29:40;;;;;;;11.02;4.32;;;24.80;99.90;;;;;;5026767;28;20033;-82
2023/08/21 11:32:10;;;;;;;11.30;4.90;;;24.80;99.90;;;;;;5025921;28;20033;-82
2023/08/21 11:34:37;;;;;;;10.35;3.78;;;24.80;99.90;;;;;;5027109;28;20131;-82
2023/08/21 11:37:04;;;;;;;7.28;3.95;;;24.70;99.90;;;;;;5026812;28;20073;-83
2023/08/21 11:39:53;;;;;;;9.18;2.63;;;24.90;99.90;;;;;;5028629;28;20508;-82
2023/08/21 11:42:21;;;;;;;5.75;2.67;;;25.20;99.90;;;;;;5027369;28;20079;-82
2023/08/21 11:44:52;;;;;;;3.55;2.90;;;25.50;99.90;;;;;;5019940;28;20683;-82
2023/08/21 11:47:20;;;;;;;4.30;2.90;;;25.70;99.90;;;;;;5028173;28;20048;-83
2023/08/21 11:49:48;;;;;;;4.90;3.03;;;25.60;99.90;;;;;;5024989;28;20056;-82
2023/08/21 11:52:18;;;;;;;8.60;3.92;;;25.80;99.90;;;;;;5032512;28;20703;-82
2023/08/21 11:54:48;;;;;;;5.32;3.78;;;25.90;99.90;;;;;;5027720;28;20029;-82
2023/08/21 11:57:15;;;;;;;4.95;3.60;;;25.80;99.90;;;;;;5032465;28;20056;-81
2023/08/21 11:59:41;;;;;;;7.78;3.72;;;25.60;99.90;;;;;;5026609;28;20112;-80
2023/08/21 12:02:15;;;;;;;7.28;4.20;;;25.60;99.90;;;;;;5044964;28;20679;-80
2023/08/21 12:04:41;;;;;;;6.50;4.05;;;25.40;99.90;;;;;;5024604;28;20156;-80
2023/08/21 12:07:07;;;;;;;5.63;3.80;;;25.50;99.90;;;;;;5027965;28;20052;-81
2023/08/21 12:09:33;;;;;;;5.75;4.00;;;25.70;99.90;;;;;;5027785;28;20045;-81
2023/08/21 12:11:59;;;;;;;5.47;3.53;;;25.80;99.90;;;;;;5025327;28;20029;-80
2023/08/21 12:14:25;;;;;;;8.02;3.63;;;25.90;99.90;;;;;;5029695;28;20152;-80
2023/08/21 12:16:51;;;;;;;7.07;4.03;;;26.00;99.90;;;;;;5037265;28;20037;-80
2023/08/21 12:19:17;;;;;;;7.15;3.65;;;26.00;99.90;;;;;;5036645;28;20162;-79
2023/08/21 12:21:42;;;;;;;6.90;3.50;;;26.20;99.90;;;;;;5030219;28;20033;-80
2023/08/21 12:24:08;;;;;;;8.20;3.83;;;26.30;99.90;;;;;;5026211;28;20029;-81
2023/08/21 12:26:34;;;;;;;7.40;4.20;;;26.30;99.90;;;;;;5036121;28;20106;-79
2023/08/21 12:29:00;;;;;;;6.80;3.33;;;26.30;99.90;;;;;;5029891;28;20029;-81
2023/08/21 12:31:26;;;;;;;8.13;4.32;;;26.20;99.90;;;;;;5029747;28;20049;-80
2023/08/21 12:33:52;;;;;;;6.78;3.63;;;26.20;99.90;;;;;;5032769;28;20044;-81
2023/08/21 12:36:18;;;;;;;6.18;3.70;;;25.80;99.90;;;;;;5025455;28;20044;-81
2023/08/21 12:38:44;;;;;;;8.38;3.88;;;25.60;99.90;;;;;;5021661;28;20033;-81
2023/08/21 12:41:10;;;;;;;18.55;3.92;;;25.50;99.90;;;;;;5027660;28;20819;-81
2023/08/21 12:43:35;;;;;;;6.72;4.05;;;25.50;99.90;;;;;;5038350;28;20095;-81
2023/08/21 12:46:01;;;;;;;12.57;4.50;;;25.30;99.90;;;;;;5025029;28;20037;-81
2023/08/21 12:48:27;;;;;;;6.47;4.28;;;25.20;99.90;;;;;;5022973;28;20041;-81
2023/08/21 12:50:53;;;;;;;7.28;4.07;;;25.00;99.90;;;;;;5026034;28;20036;-81
2023/08/21 12:53:19;;;;;;;7.18;4.03;;;25.00;99.90;;;;;;5018993;28;20037;-81